createdAt,value
2023-05-14T00:00:08.527Z,100904.23
2023-05-14T00:02:56.122Z,100906.73
2023-05-14T00:05:24.188Z,100907.61
2023-05-14T00:07:51.663Z,100906.05
2023-05-14T00:10:22.264Z,100903.42
2023-05-14T00:12:51.777Z,100904.52
2023-05-14T00:15:19.975Z,100904.20
2023-05-14T00:17:47.514Z,100903.85
2023-05-14T00:20:15.145Z,100902.46
2023-05-14T00:22:42.708Z,100905.81
2023-05-14T00:25:10.582Z,100907.71
2023-05-14T00:27:38.240Z,100908.42
2023-05-14T00:30:06.937Z,100904.80
2023-05-14T00:32:34.589Z,100904.91
2023-05-14T00:35:04.411Z,100898.80
2023-05-14T00:37:32.213Z,100900.90
2023-05-14T00:39:59.880Z,100898.09
2023-05-14T00:42:27.793Z,100896.00
2023-05-14T00:44:55.400Z,100897.75
2023-05-14T00:47:23.142Z,100894.95
2023-05-14T00:49:50.742Z,100891.83
2023-05-14T00:52:18.744Z,100890.63
2023-05-14T00:54:48.093Z,100892.70
2023-05-14T00:57:15.734Z,100891.19
2023-05-14T00:59:43.265Z,100891.03
2023-05-14T01:02:11.389Z,100886.73
2023-05-14T01:04:40.154Z,100892.55
2023-05-14T01:07:40.406Z,100890.50
2023-05-14T01:10:16.020Z,100889.48
2023-05-14T01:12:59.479Z,100891.44
2023-05-14T01:15:33.609Z,100893.41
2023-05-14T01:18:07.829Z,100893.97
2023-05-14T01:20:36.548Z,100891.93
2023-05-14T01:23:04.109Z,100889.55
2023-05-14T01:25:32.449Z,100886.83
2023-05-14T01:28:03.028Z,100887.59
2023-05-14T01:30:40.199Z,100887.32
2023-05-14T01:33:13.857Z,100887.03
2023-05-14T01:35:42.012Z,100887.10
2023-05-14T01:38:13.888Z,100884.89
2023-05-14T01:40:44.570Z,100884.73
2023-05-14T01:43:12.624Z,100883.50
2023-05-14T01:45:40.623Z,100883.66
2023-05-14T01:48:08.535Z,100881.42
2023-05-14T01:50:38.807Z,100879.86
2023-05-14T01:53:06.611Z,100878.86
2023-05-14T01:55:34.045Z,100878.56
2023-05-14T01:58:01.627Z,100877.04
2023-05-14T02:00:29.259Z,100878.80
2023-05-14T02:02:56.836Z,100877.91
2023-05-14T02:05:24.519Z,100877.96
2023-05-14T02:07:52.161Z,100878.67
2023-05-14T02:10:19.786Z,100877.51
2023-05-14T02:12:47.489Z,100880.69
2023-05-14T02:15:15.064Z,100876.90
2023-05-14T02:17:42.748Z,100875.70
2023-05-14T02:20:11.156Z,100874.19
2023-05-14T02:22:41.169Z,100872.63
2023-05-14T02:25:09.595Z,100869.85
2023-05-14T02:27:37.159Z,100869.20
2023-05-14T02:30:06.144Z,100866.95
2023-05-14T02:32:33.753Z,100869.62
2023-05-14T02:35:01.575Z,100869.64
2023-05-14T02:37:29.238Z,100868.64
2023-05-14T02:39:56.744Z,100865.73
2023-05-14T02:42:24.316Z,100862.98
2023-05-14T02:44:54.936Z,100863.73
2023-05-14T02:47:22.619Z,100864.09
2023-05-14T02:49:50.356Z,100865.17
2023-05-14T02:52:17.914Z,100863.11
2023-05-14T02:54:46.596Z,100860.71
2023-05-14T02:57:14.117Z,100857.98
2023-05-14T02:59:41.741Z,100853.85
2023-05-14T03:02:09.628Z,100854.07
2023-05-14T03:04:37.725Z,100854.78
2023-05-14T03:07:05.539Z,100854.29
2023-05-14T03:09:33.111Z,100852.17
2023-05-14T03:12:01.521Z,100851.99
2023-05-14T03:14:29.271Z,100854.40
2023-05-14T03:16:56.772Z,100859.08
2023-05-14T03:19:24.530Z,100856.45
2023-05-14T03:21:52.060Z,100858.18
2023-05-14T03:24:19.522Z,100855.90
2023-05-14T03:26:48.151Z,100854.13
2023-05-14T03:29:18.256Z,100852.73
2023-05-14T03:31:45.914Z,100849.41
2023-05-14T03:34:13.549Z,100848.17
2023-05-14T03:36:41.143Z,100850.21
2023-05-14T03:39:09.650Z,100852.29
2023-05-14T03:41:37.717Z,100847.73
2023-05-14T03:44:06.380Z,100848.73
2023-05-14T03:46:34.268Z,100843.10
2023-05-14T03:49:01.964Z,100840.96
2023-05-14T03:51:29.681Z,100840.70
2023-05-14T03:53:58.321Z,100839.91
2023-05-14T03:56:26.294Z,100840.69
2023-05-14T03:58:53.763Z,100838.47
2023-05-14T04:01:21.423Z,100838.91
2023-05-14T04:03:49.131Z,100836.17
2023-05-14T04:06:16.769Z,100835.02
2023-05-14T04:08:44.400Z,100834.92
2023-05-14T04:11:11.914Z,100830.80
2023-05-14T04:13:39.435Z,100826.49
2023-05-14T04:16:07.101Z,100828.27
2023-05-14T04:18:37.095Z,100826.18
2023-05-14T04:21:04.933Z,100828.95
2023-05-14T04:23:32.521Z,100832.05
2023-05-14T04:26:00.590Z,100831.49
2023-05-14T04:28:28.058Z,100831.45
2023-05-14T04:30:56.946Z,100826.90
2023-05-14T04:33:24.539Z,100825.33
2023-05-14T04:35:52.823Z,100826.69
2023-05-14T04:38:20.397Z,100823.86
2023-05-14T04:40:47.883Z,100825.77
2023-05-14T04:43:17.959Z,100823.43
2023-05-14T04:45:45.664Z,100821.99
2023-05-14T04:48:13.160Z,100813.90
2023-05-14T04:50:40.763Z,100819.08
2023-05-14T04:53:08.233Z,100814.50
2023-05-14T04:55:35.758Z,100813.58
2023-05-14T04:58:03.326Z,100811.89
2023-05-14T05:00:30.834Z,100810.03
2023-05-14T05:02:58.839Z,100809.37
2023-05-14T05:05:26.661Z,100807.15
2023-05-14T05:07:54.476Z,100801.96
2023-05-14T05:10:22.233Z,100800.73
2023-05-14T05:12:50.314Z,100798.83
2023-05-14T05:15:17.917Z,100795.84
2023-05-14T05:17:45.900Z,100792.16
2023-05-14T05:20:13.892Z,100790.92
2023-05-14T05:22:41.430Z,100788.45
2023-05-14T05:25:09.443Z,100790.86
2023-05-14T05:27:39.415Z,100789.73
2023-05-14T05:30:08.371Z,100790.92
2023-05-14T05:32:36.687Z,100788.91
2023-05-14T05:35:05.016Z,100789.39
2023-05-14T05:37:33.105Z,100786.54
2023-05-14T05:40:00.767Z,100784.85
2023-05-14T05:42:28.348Z,100781.40
2023-05-14T05:44:56.293Z,100775.55
2023-05-14T05:47:25.564Z,100772.66
2023-05-14T05:49:54.048Z,100770.05
2023-05-14T05:52:21.711Z,100770.92
2023-05-14T05:54:49.292Z,100771.10
2023-05-14T05:57:16.785Z,100772.00
2023-05-14T05:59:44.492Z,100771.98
2023-05-14T06:02:12.103Z,100770.55
2023-05-14T06:04:39.761Z,100772.27
2023-05-14T06:07:07.251Z,100769.92
2023-05-14T06:09:34.737Z,100766.56
2023-05-14T06:12:02.237Z,100765.48
2023-05-14T06:14:29.793Z,100763.83
2023-05-14T06:16:58.702Z,100763.06
2023-05-14T06:19:26.431Z,100760.70
2023-05-14T06:21:54.058Z,100760.90
2023-05-14T06:24:21.686Z,100764.31
2023-05-14T06:26:49.311Z,100758.76
2023-05-14T06:29:17.047Z,100756.23
2023-05-14T06:31:44.586Z,100757.73
2023-05-14T06:34:12.241Z,100758.89
2023-05-14T06:36:40.236Z,100760.48
2023-05-14T06:39:07.730Z,100759.77
2023-05-14T06:41:35.374Z,100760.16
2023-05-14T06:44:02.921Z,100758.13
2023-05-14T06:46:30.586Z,100751.62
2023-05-14T06:48:59.515Z,100755.91
2023-05-14T06:51:27.244Z,100749.10
2023-05-14T06:53:58.847Z,100748.17
2023-05-14T06:56:26.471Z,100750.21
2023-05-14T06:58:54.052Z,100749.83
2023-05-14T07:01:21.659Z,100742.85
2023-05-14T07:03:49.233Z,100745.80
2023-05-14T07:06:16.859Z,100741.80
2023-05-14T07:08:47.319Z,100742.88
2023-05-14T07:11:15.282Z,100743.38
2023-05-14T07:13:42.960Z,100741.86
2023-05-14T07:16:10.506Z,100744.77
2023-05-14T07:18:38.086Z,100740.64
2023-05-14T07:21:07.424Z,100739.14
2023-05-14T07:23:38.473Z,100743.02
2023-05-14T07:26:07.956Z,100737.52
2023-05-14T07:28:35.829Z,100732.38
2023-05-14T07:31:08.714Z,100727.02
2023-05-14T07:33:36.465Z,100724.33
2023-05-14T07:36:05.018Z,100719.20
2023-05-14T07:38:32.798Z,100719.77
2023-05-14T07:41:00.503Z,100722.02
2023-05-14T07:43:28.161Z,100721.04
2023-05-14T07:45:55.860Z,100718.38
2023-05-14T07:48:23.626Z,100714.16
2023-05-14T07:50:51.861Z,100719.27
2023-05-14T07:53:19.533Z,100708.20
2023-05-14T07:55:49.152Z,100717.64
2023-05-14T07:58:16.673Z,100712.55
2023-05-14T08:00:44.297Z,100708.59
2023-05-14T08:03:11.959Z,100699.83
2023-05-14T08:05:40.130Z,100703.68
2023-05-14T08:08:07.717Z,100705.06
2023-05-14T08:10:35.304Z,100701.20
2023-05-14T08:13:03.682Z,100697.95
2023-05-14T08:15:31.388Z,100696.91
2023-05-14T08:18:03.304Z,100699.42
2023-05-14T08:20:31.132Z,100693.30
2023-05-14T08:22:58.685Z,100690.09
2023-05-14T08:25:26.252Z,100691.59
2023-05-14T08:27:54.220Z,100693.43
2023-05-14T08:30:23.292Z,100694.98
2023-05-14T08:32:51.342Z,100693.04
2023-05-14T08:35:19.158Z,100691.23
2023-05-14T08:37:46.757Z,100684.52
2023-05-14T08:40:14.306Z,100677.80
2023-05-14T08:42:44.709Z,100674.48
2023-05-14T08:45:21.813Z,100677.35
2023-05-14T08:47:51.023Z,100670.23
2023-05-14T08:50:23.598Z,100673.35
2023-05-14T08:52:52.856Z,100666.24
2023-05-14T08:55:20.918Z,100668.20
2023-05-14T08:57:49.086Z,100659.68
2023-05-14T09:00:16.739Z,100662.71
2023-05-14T09:02:44.949Z,100655.46
2023-05-14T09:05:13.213Z,100655.40
2023-05-14T09:07:41.306Z,100653.17
2023-05-14T09:10:10.048Z,100651.59
2023-05-14T09:12:37.753Z,100644.23
2023-05-14T09:15:06.581Z,100646.88
2023-05-14T09:17:34.804Z,100647.11
2023-05-14T09:20:03.069Z,100647.48
2023-05-14T09:22:33.436Z,100641.73
2023-05-14T09:25:09.750Z,100640.11
2023-05-14T09:27:38.381Z,100635.33
2023-05-14T09:30:13.377Z,100637.92
2023-05-14T09:32:45.903Z,100634.00
2023-05-14T09:35:22.172Z,100640.19
2023-05-14T09:37:54.650Z,100642.08
2023-05-14T09:40:24.621Z,100637.29
2023-05-14T09:42:53.359Z,100638.48
2023-05-14T09:45:21.017Z,100633.46
2023-05-14T09:47:49.687Z,100625.78
2023-05-14T09:50:17.501Z,100615.77
2023-05-14T09:52:45.028Z,100615.59
2023-05-14T09:55:13.448Z,100610.48
2023-05-14T09:57:40.985Z,100615.22
2023-05-14T10:00:10.154Z,100610.87
2023-05-14T10:02:40.556Z,100609.65
2023-05-14T10:05:09.742Z,100602.56
2023-05-14T10:07:42.657Z,100606.27
2023-05-14T10:10:15.223Z,100597.49
2023-05-14T10:12:46.238Z,100601.40
2023-05-14T10:15:20.968Z,100595.80
2023-05-14T10:17:57.109Z,100601.15
2023-05-14T10:20:26.645Z,100587.27
2023-05-14T10:22:54.374Z,100589.79
2023-05-14T10:25:23.035Z,100595.20
2023-05-14T10:27:53.434Z,100591.70
2023-05-14T10:30:23.437Z,100582.58
2023-05-14T10:33:09.461Z,100587.38
2023-05-14T10:36:09.147Z,100590.70
2023-05-14T10:38:38.277Z,100586.33
2023-05-14T10:41:10.369Z,100580.64
2023-05-14T10:43:39.781Z,100574.68
2023-05-14T10:46:09.063Z,100573.08
2023-05-14T10:48:37.910Z,100566.19
2023-05-14T10:51:09.319Z,100567.84
2023-05-14T10:53:42.414Z,100565.06
2023-05-14T10:56:12.085Z,100558.08
2023-05-14T10:58:44.633Z,100562.63
2023-05-14T11:01:13.647Z,100556.60
2023-05-14T11:03:45.400Z,100553.15
2023-05-14T11:06:15.852Z,100558.55
2023-05-14T11:08:44.845Z,100545.19
2023-05-14T11:11:12.628Z,100539.57
2023-05-14T11:13:41.260Z,100535.23
2023-05-14T11:16:21.705Z,100540.97
2023-05-14T11:19:02.294Z,100546.00
2023-05-14T11:21:31.668Z,100538.04
2023-05-14T11:24:00.808Z,100529.78
2023-05-14T11:26:28.415Z,100525.73
2023-05-14T11:28:56.365Z,100533.07
2023-05-14T11:31:25.340Z,100523.60
2023-05-14T11:33:53.821Z,100523.33
2023-05-14T11:36:22.226Z,100522.97
2023-05-14T11:38:51.328Z,100513.58
2023-05-14T11:41:21.290Z,100511.18
2023-05-14T11:43:48.941Z,100510.77
2023-05-14T11:46:18.453Z,100513.85
2023-05-14T11:48:46.152Z,100507.83
2023-05-14T11:51:13.727Z,100503.52
2023-05-14T11:53:41.373Z,100504.70
2023-05-14T11:56:09.946Z,100504.91
2023-05-14T11:58:38.051Z,100498.92
2023-05-14T12:01:05.647Z,100493.10
2023-05-14T12:03:33.683Z,100496.80
2023-05-14T12:06:07.205Z,100491.14
2023-05-14T12:08:34.714Z,100491.14
2023-05-14T12:11:02.174Z,100489.95
2023-05-14T12:13:31.328Z,100491.30
2023-05-14T12:16:02.044Z,100486.17
2023-05-14T12:18:32.270Z,100475.51
2023-05-14T12:21:04.697Z,100468.85
2023-05-14T12:23:32.919Z,100465.01
2023-05-14T12:26:09.362Z,100464.48
2023-05-14T12:28:43.329Z,100460.34
2023-05-14T12:31:11.858Z,100456.73
2023-05-14T12:33:39.388Z,100451.40
2023-05-14T12:38:37.636Z,100434.51
2023-05-14T12:41:05.190Z,100429.02
2023-05-14T12:43:32.663Z,100421.10
2023-05-14T12:46:00.204Z,100420.80
2023-05-14T12:48:27.762Z,100416.05
2023-05-14T12:50:56.026Z,100419.25
2023-05-14T12:53:23.952Z,100418.38
2023-05-14T12:55:51.618Z,100423.70
2023-05-14T12:58:19.076Z,100417.54
2023-05-14T13:00:46.646Z,100419.61
2023-05-14T13:03:14.212Z,100411.70
2023-05-14T13:05:41.964Z,100404.92
2023-05-14T13:08:10.165Z,100401.92
2023-05-14T13:10:37.641Z,100402.58
2023-05-14T13:13:05.218Z,100401.58
2023-05-14T13:15:33.652Z,100395.81
2023-05-14T13:18:01.159Z,100393.67
2023-05-14T13:20:30.865Z,100389.98
2023-05-14T13:22:58.336Z,100390.69
2023-05-14T13:25:27.450Z,100388.00
2023-05-14T13:27:55.131Z,100386.89
2023-05-14T13:30:22.631Z,100385.79
2023-05-14T13:32:50.438Z,100380.87
2023-05-14T13:35:18.194Z,100373.15
2023-05-14T13:37:46.823Z,100369.13
2023-05-14T13:40:14.472Z,100357.17
2023-05-14T13:42:42.072Z,100355.38
2023-05-14T13:45:09.915Z,100356.79
2023-05-14T13:47:37.487Z,100362.51
2023-05-14T13:50:05.672Z,100361.02
2023-05-14T13:52:33.218Z,100366.23
2023-05-14T13:55:00.741Z,100358.74
2023-05-14T13:57:28.282Z,100351.40
2023-05-14T13:59:55.905Z,100351.85
2023-05-14T14:02:23.456Z,100342.14
2023-05-14T14:04:50.986Z,100343.15
2023-05-14T14:07:18.547Z,100343.30
2023-05-14T14:09:45.995Z,100344.14
2023-05-14T14:12:13.555Z,100342.90
2023-05-14T14:14:41.134Z,100340.80
2023-05-14T14:17:09.004Z,100332.24
2023-05-14T14:19:36.625Z,100332.96
2023-05-14T14:22:04.832Z,100328.20
2023-05-14T14:24:32.325Z,100322.39
2023-05-14T14:27:00.898Z,100320.45
2023-05-14T14:29:30.994Z,100315.60
2023-05-14T14:31:59.311Z,100320.77
2023-05-14T14:34:27.021Z,100318.64
2023-05-14T14:36:54.534Z,100313.67
2023-05-14T14:39:24.544Z,100310.56
2023-05-14T14:41:52.148Z,100311.92
2023-05-14T14:44:19.608Z,100310.46
2023-05-14T14:46:47.479Z,100311.80
2023-05-14T14:49:15.002Z,100304.73
2023-05-14T14:51:43.220Z,100307.73
2023-05-14T14:54:10.723Z,100303.83
2023-05-14T14:56:39.031Z,100294.42
2023-05-14T14:59:06.560Z,100294.72
2023-05-14T15:01:34.186Z,100292.38
2023-05-14T15:04:01.735Z,100290.29
2023-05-14T15:06:29.343Z,100288.36
2023-05-14T15:08:57.210Z,100283.95
2023-05-14T15:11:24.868Z,100280.15
2023-05-14T15:13:52.391Z,100284.70
2023-05-14T15:16:19.991Z,100287.16
2023-05-14T15:18:47.579Z,100284.52
2023-05-14T15:21:15.362Z,100284.54
2023-05-14T15:23:42.913Z,100283.84
2023-05-14T15:26:10.428Z,100280.00
2023-05-14T15:28:38.345Z,100284.48
2023-05-14T15:31:05.981Z,100281.92
2023-05-14T15:33:34.002Z,100281.44
2023-05-14T15:36:01.545Z,100281.38
2023-05-14T15:38:29.194Z,100281.59
2023-05-14T15:40:56.762Z,100280.20
2023-05-14T15:43:24.372Z,100284.13
2023-05-14T15:45:51.879Z,100285.48
2023-05-14T15:48:19.442Z,100283.65
2023-05-14T15:50:49.692Z,100278.23
2023-05-14T15:53:17.895Z,100278.08
2023-05-14T15:55:48.510Z,100274.92
2023-05-14T15:58:16.018Z,100268.98
2023-05-14T16:00:43.567Z,100271.20
2023-05-14T16:03:12.257Z,100268.59
2023-05-14T16:05:41.417Z,100264.77
2023-05-14T16:08:09.075Z,100261.98
2023-05-14T16:10:37.772Z,100256.68
2023-05-14T16:13:05.375Z,100252.98
2023-05-14T16:15:32.912Z,100250.43
2023-05-14T16:18:00.667Z,100251.28
2023-05-14T16:20:28.268Z,100249.45
2023-05-14T16:22:55.797Z,100246.21
2023-05-14T16:25:23.366Z,100242.85
2023-05-14T16:27:50.871Z,100239.33
2023-05-14T16:30:18.440Z,100242.34
2023-05-14T16:32:49.504Z,100235.42
2023-05-14T16:35:17.148Z,100230.57
2023-05-14T16:37:44.797Z,100227.48
2023-05-14T16:40:12.842Z,100226.70
2023-05-14T16:42:40.370Z,100227.20
2023-05-14T16:45:08.723Z,100221.82
2023-05-14T16:47:36.374Z,100224.05
2023-05-14T16:50:03.984Z,100220.40
2023-05-14T16:52:31.709Z,100221.57
2023-05-14T16:54:59.291Z,100223.50
2023-05-14T16:57:26.783Z,100219.77
2023-05-14T16:59:54.296Z,100217.58
2023-05-14T17:02:21.817Z,100211.20
2023-05-14T17:04:49.420Z,100208.14
2023-05-14T17:07:17.411Z,100210.71
2023-05-14T17:09:45.071Z,100210.48
2023-05-14T17:12:13.615Z,100212.64
2023-05-14T17:14:42.179Z,100208.70
2023-05-14T17:17:09.637Z,100214.30
2023-05-14T17:19:37.114Z,100218.00
2023-05-14T17:22:06.481Z,100216.30
2023-05-14T17:24:35.369Z,100214.62
2023-05-14T17:27:02.910Z,100214.58
2023-05-14T17:29:30.564Z,100211.66
2023-05-14T17:31:58.251Z,100209.73
2023-05-14T17:34:25.936Z,100211.31
2023-05-14T17:36:53.537Z,100207.48
2023-05-14T17:39:20.998Z,100211.48
2023-05-14T17:41:48.553Z,100211.08
2023-05-14T17:44:16.094Z,100208.96
2023-05-14T17:46:45.132Z,100207.05
2023-05-14T17:49:12.913Z,100207.31
2023-05-14T17:51:40.640Z,100209.06
2023-05-14T17:54:08.260Z,100207.48
2023-05-14T17:56:35.906Z,100206.55
2023-05-14T17:59:03.842Z,100207.92
2023-05-14T18:01:31.553Z,100208.36
2023-05-14T18:03:59.350Z,100211.58
2023-05-14T18:06:27.162Z,100210.99
2023-05-14T18:08:57.491Z,100210.23
2023-05-14T18:11:25.993Z,100213.49
2023-05-14T18:13:53.462Z,100218.98
2023-05-14T18:16:21.070Z,100214.27
2023-05-14T18:18:48.945Z,100216.29
2023-05-14T18:21:17.925Z,100218.13
2023-05-14T18:23:45.498Z,100216.27
2023-05-14T18:26:12.999Z,100218.96
2023-05-14T18:28:40.836Z,100217.80
2023-05-14T18:31:08.456Z,100216.84
2023-05-14T18:33:36.060Z,100219.57
2023-05-14T18:36:03.951Z,100219.75
2023-05-14T18:38:31.475Z,100224.66
2023-05-14T18:41:01.673Z,100223.29
2023-05-14T18:43:29.185Z,100229.89
2023-05-14T18:45:56.819Z,100232.05
2023-05-14T18:48:24.795Z,100230.14
2023-05-14T18:50:52.312Z,100230.36
2023-05-14T18:53:20.080Z,100235.67
2023-05-14T18:55:47.643Z,100233.81
2023-05-14T18:58:15.173Z,100230.61
2023-05-14T19:00:42.819Z,100227.30
2023-05-14T19:03:10.499Z,100228.84
2023-05-14T19:05:39.826Z,100226.31
2023-05-14T19:08:07.563Z,100229.27
2023-05-14T19:10:35.030Z,100229.83
2023-05-14T19:13:02.904Z,100227.02
2023-05-14T19:15:30.522Z,100224.62
2023-05-14T19:17:58.210Z,100222.02
2023-05-14T19:20:26.232Z,100221.55
2023-05-14T19:22:53.711Z,100219.25
2023-05-14T19:25:21.213Z,100223.45
2023-05-14T19:27:51.052Z,100223.06
2023-05-14T19:30:19.928Z,100224.09
2023-05-14T19:32:47.532Z,100218.41
2023-05-14T19:35:15.611Z,100216.70
2023-05-14T19:37:43.127Z,100220.23
2023-05-14T19:40:11.067Z,100220.40
2023-05-14T19:42:38.582Z,100218.83
2023-05-14T19:45:06.575Z,100220.75
2023-05-14T19:47:34.234Z,100221.35
2023-05-14T19:50:01.903Z,100221.73
2023-05-14T19:52:29.374Z,100220.84
2023-05-14T19:54:56.847Z,100217.52
2023-05-14T19:57:24.376Z,100215.22
2023-05-14T19:59:51.916Z,100216.83
2023-05-14T20:02:21.597Z,100211.40
2023-05-14T20:04:49.517Z,100212.11
2023-05-14T20:07:17.148Z,100206.61
2023-05-14T20:09:44.730Z,100201.61
2023-05-14T20:12:13.200Z,100199.72
2023-05-14T20:14:41.282Z,100198.71
2023-05-14T20:17:09.078Z,100196.08
2023-05-14T20:19:36.714Z,100193.22
2023-05-14T20:22:04.515Z,100189.26
2023-05-14T20:24:31.982Z,100191.38
2023-05-14T20:26:59.449Z,100188.66
2023-05-14T20:29:26.980Z,100187.42
2023-05-14T20:31:54.542Z,100191.57
2023-05-14T20:34:22.155Z,100191.73
2023-05-14T20:36:50.009Z,100188.99
2023-05-14T20:39:18.325Z,100188.72
2023-05-14T20:41:45.963Z,100186.20
2023-05-14T20:44:13.520Z,100181.19
2023-05-14T20:46:41.232Z,100183.42
2023-05-14T20:49:08.708Z,100179.10
2023-05-14T20:51:36.210Z,100178.64
2023-05-14T20:54:04.075Z,100176.09
2023-05-14T20:56:31.731Z,100180.16
2023-05-14T20:58:59.238Z,100177.45
2023-05-14T21:01:26.939Z,100174.44
2023-05-14T21:03:54.868Z,100173.95
2023-05-14T21:06:22.478Z,100168.34
2023-05-14T21:08:53.008Z,100160.75
2023-05-14T21:11:21.576Z,100160.67
2023-05-14T21:13:49.121Z,100157.59
2023-05-14T21:16:16.756Z,100152.77
2023-05-14T21:18:44.711Z,100152.38
2023-05-14T21:21:12.236Z,100151.23
2023-05-14T21:23:40.087Z,100148.50
2023-05-14T21:26:07.830Z,100148.23
2023-05-14T21:28:35.461Z,100143.59
2023-05-14T21:31:02.926Z,100143.58
2023-05-14T21:33:30.437Z,100142.11
2023-05-14T21:35:58.053Z,100143.45
2023-05-14T21:38:25.742Z,100143.60
2023-05-14T21:40:53.234Z,100145.16
2023-05-14T21:43:20.934Z,100144.92
2023-05-14T21:45:48.425Z,100140.98
2023-05-14T21:48:16.068Z,100139.70
2023-05-14T21:50:43.654Z,100140.97
2023-05-14T21:53:11.217Z,100138.08
2023-05-14T21:55:38.965Z,100134.11
2023-05-14T21:58:07.501Z,100133.98
2023-05-14T22:00:34.977Z,100130.00
2023-05-14T22:03:02.635Z,100127.21
2023-05-14T22:05:30.216Z,100127.98
2023-05-14T22:07:57.729Z,100125.40
2023-05-14T22:10:25.380Z,100124.62
2023-05-14T22:12:52.846Z,100121.58
2023-05-14T22:15:20.539Z,100115.71
2023-05-14T22:17:48.216Z,100116.48
2023-05-14T22:20:16.358Z,100112.55
2023-05-14T22:22:43.853Z,100111.14
2023-05-14T22:25:11.442Z,100113.54
2023-05-14T22:27:39.053Z,100107.09
2023-05-14T22:30:07.421Z,100105.96
2023-05-14T22:32:35.014Z,100108.30
2023-05-14T22:35:03.209Z,100107.79
2023-05-14T22:37:30.798Z,100106.61
2023-05-14T22:39:58.291Z,100103.32
2023-05-14T22:42:26.720Z,100102.17
2023-05-14T22:44:54.315Z,100093.55
2023-05-14T22:47:21.954Z,100093.64
2023-05-14T22:49:49.655Z,100090.40
2023-05-14T22:52:18.838Z,100089.08
2023-05-14T22:54:46.708Z,100082.33
2023-05-14T22:57:14.286Z,100082.91
2023-05-14T22:59:41.800Z,100077.04
2023-05-14T23:02:09.489Z,100072.56
2023-05-14T23:04:37.336Z,100068.98
2023-05-14T23:07:04.877Z,100062.95
2023-05-14T23:09:32.450Z,100058.87
2023-05-14T23:12:00.444Z,100054.77
2023-05-14T23:14:27.990Z,100053.55
2023-05-14T23:16:55.517Z,100049.30
2023-05-14T23:19:23.303Z,100043.22
2023-05-14T23:21:51.017Z,100040.65
2023-05-14T23:24:18.511Z,100035.79
2023-05-14T23:26:45.958Z,100028.65
2023-05-14T23:29:13.744Z,100021.90
2023-05-14T23:31:42.431Z,100016.13
2023-05-14T23:34:10.005Z,100012.23
2023-05-14T23:36:37.581Z,100007.38
2023-05-14T23:39:06.841Z,100005.07
2023-05-14T23:41:34.401Z,99994.55
2023-05-14T23:44:02.149Z,99997.34
2023-05-14T23:46:30.205Z,99993.70
2023-05-14T23:48:57.962Z,99991.27
2023-05-14T23:51:27.864Z,99989.34
2023-05-14T23:54:00.739Z,99985.33
2023-05-14T23:56:31.738Z,99980.05
2023-05-14T23:58:59.501Z,99977.05
